Terminal Aerodrome Forecast
Issued by NWS

Home | Current Version | Previous Version | Text Only | Print | Product List | Glossary On
Versions: 1 2 3 4 5 6 7 8 9 10 11 12
000
FTUS45 KABQ 061100
TAFFMN
TAF
KFMN 061133Z 0612/0712 08005KT P6SM SKC
     FM062100 29008KT P6SM SKC
     FM070200 VRB04KT P6SM FEW250
     FM070800 07006KT P6SM FEW250=

USA.gov is the U.S. government's official web portal to all federal, state and local government web resources and services.